Time;durP1;ratioP1;P1;durP2;ratioP2;P2;SDS_P1;SDS_P2;PMS_P1;PMS_P2;Temp;Humidity;BMP_temperature;BMP_pressure;BME280_temperature;BME280_humidity;BME280_pressure;Samples;Min_cycle;Max_cycle;Signal;HPM_P1;HPM_P2
2022/01/31 00:00:02;;;;;;;6.72;1.45;;;;;;;;;;7391288;19;21185;-79
2022/01/31 00:02:28;;;;;;;3.50;1.30;;;;;;;;;;7388931;19;20009;-78
2022/01/31 00:04:53;;;;;;;3.90;1.15;;;;;;;;;;7390153;19;20006;-78
2022/01/31 00:07:18;;;;;;;2.10;1.30;;;;;;;;;;7391707;19;19998;-78
2022/01/31 00:09:45;;;;;;;2.22;0.90;;;;;;;;;;7392422;19;20010;-79
2022/01/31 00:12:13;;;;;;;4.28;1.40;;;;;;;;;;7386742;19;20360;-78
2022/01/31 00:14:44;;;;;;;5.97;1.52;;;;;;;;;;7390561;19;20014;-79
2022/01/31 00:17:11;;;;;;;4.63;1.23;;;;;;;;;;7391495;19;20014;-79
2022/01/31 00:19:37;;;;;;;2.88;1.25;;;;;;;;;;7390779;19;20026;-79
2022/01/31 00:22:08;;;;;;;2.70;1.05;;;;;;;;;;7391237;19;20040;-79
2022/01/31 00:24:34;;;;;;;6.03;1.50;;;;;;;;;;7391621;19;20412;-79
2022/01/31 00:27:01;;;;;;;7.13;2.05;;;;;;;;;;7392647;19;20030;-80
2022/01/31 00:29:26;;;;;;;4.30;1.58;;;;;;;;;;7390354;19;20043;-79
2022/01/31 00:31:51;;;;;;;4.75;1.45;;;;;;;;;;7390753;19;20056;-79
2022/01/31 00:34:17;;;;;;;4.13;1.13;;;;;;;;;;7391460;19;20011;-80
2022/01/31 00:36:42;;;;;;;5.07;1.77;;;;;;;;;;7387868;19;20002;-80
2022/01/31 00:39:08;;;;;;;3.40;1.50;;;;;;;;;;7388877;19;20056;-80
2022/01/31 00:41:33;;;;;;;2.97;1.20;;;;;;;;;;7385849;19;20010;-79
2022/01/31 00:44:49;;;;;;;4.40;1.40;;;;;;;;;;7388782;19;20031;-80
2022/01/31 00:46:51;;;;;;;4.75;1.80;;;;;;;;;;7387368;19;20361;-79
2022/01/31 00:49:38;;;;;;;5.88;1.23;;;;;;;;;;7387415;19;20546;-79
2022/01/31 00:52:04;;;;;;;3.50;1.10;;;;;;;;;;7386060;19;20002;-78
2022/01/31 00:54:29;;;;;;;2.17;1.05;;;;;;;;;;7390034;19;20009;-79
2022/01/31 00:56:55;;;;;;;3.38;1.38;;;;;;;;;;7390164;19;20006;-80
2022/01/31 00:59:20;;;;;;;4.78;1.20;;;;;;;;;;7386402;19;20340;-79
2022/01/31 01:01:46;;;;;;;6.47;1.30;;;;;;;;;;7386339;19;20122;-78
2022/01/31 01:04:11;;;;;;;2.70;1.02;;;;;;;;;;7389316;19;20011;-78
2022/01/31 01:06:37;;;;;;;4.57;1.65;;;;;;;;;;7387095;19;20418;-79
2022/01/31 01:09:03;;;;;;;6.28;1.38;;;;;;;;;;7387102;19;20006;-80
2022/01/31 01:11:28;;;;;;;5.13;1.40;;;;;;;;;;7389215;19;19994;-80
2022/01/31 01:13:53;;;;;;;5.32;1.48;;;;;;;;;;7388970;19;20790;-79
2022/01/31 01:16:19;;;;;;;10.88;2.10;;;;;;;;;;7388080;19;20434;-80
2022/01/31 01:18:44;;;;;;;4.50;1.38;;;;;;;;;;7388807;19;20126;-79
2022/01/31 01:21:09;;;;;;;7.85;2.58;;;;;;;;;;7385355;19;20362;-80
2022/01/31 01:23:35;;;;;;;3.00;1.48;;;;;;;;;;7389387;19;20007;-79
2022/01/31 01:26:00;;;;;;;4.53;1.67;;;;;;;;;;7385224;19;20005;-79
2022/01/31 01:28:26;;;;;;;4.03;1.50;;;;;;;;;;7389174;19;20002;-79
2022/01/31 01:30:54;;;;;;;7.93;1.65;;;;;;;;;;7386855;19;20010;-79
2022/01/31 01:33:22;;;;;;;7.07;1.88;;;;;;;;;;7387622;19;20309;-78
2022/01/31 01:35:49;;;;;;;6.25;1.48;;;;;;;;;;7387023;19;20003;-78
2022/01/31 01:38:17;;;;;;;7.65;1.75;;;;;;;;;;7390041;19;20485;-79
2022/01/31 01:40:43;;;;;;;3.72;1.38;;;;;;;;;;7386587;19;20097;-79
2022/01/31 01:43:10;;;;;;;4.45;1.63;;;;;;;;;;7387473;19;20138;-79
2022/01/31 01:45:38;;;;;;;8.32;1.85;;;;;;;;;;7386042;19;20476;-78
2022/01/31 01:48:06;;;;;;;6.47;1.63;;;;;;;;;;7390220;19;20022;-81
2022/01/31 01:50:35;;;;;;;9.75;2.83;;;;;;;;;;7390311;19;20007;-79
2022/01/31 01:53:01;;;;;;;4.18;1.40;;;;;;;;;;7385151;19;20026;-79
2022/01/31 01:55:26;;;;;;;10.45;2.00;;;;;;;;;;7389761;19;20081;-80
2022/01/31 01:57:52;;;;;;;6.47;1.52;;;;;;;;;;7388014;19;20005;-79
2022/01/31 02:00:24;;;;;;;6.13;1.65;;;;;;;;;;7387240;19;20006;-79
2022/01/31 02:02:50;;;;;;;6.68;1.90;;;;;;;;;;7386809;19;20018;-78
2022/01/31 02:05:15;;;;;;;5.68;1.70;;;;;;;;;;7389082;19;20058;-79
2022/01/31 02:07:40;;;;;;;7.63;1.83;;;;;;;;;;7385281;19;20002;-79
2022/01/31 02:10:06;;;;;;;7.40;1.85;;;;;;;;;;7387460;19;20106;-79
2022/01/31 02:12:47;;;;;;;8.55;2.25;;;;;;;;;;7386160;19;20450;-80
2022/01/31 02:15:14;;;;;;;4.35;1.40;;;;;;;;;;7387042;19;20042;-79
2022/01/31 02:17:40;;;;;;;4.35;1.52;;;;;;;;;;7388598;19;20007;-79
2022/01/31 02:20:07;;;;;;;5.13;1.98;;;;;;;;;;7386260;19;20486;-79
2022/01/31 02:22:33;;;;;;;5.00;1.42;;;;;;;;;;7385156;19;20022;-79
2022/01/31 02:24:59;;;;;;;7.57;1.55;;;;;;;;;;7389424;19;20006;-79
2022/01/31 02:27:32;;;;;;;6.80;2.10;;;;;;;;;;7388148;19;20010;-79
2022/01/31 02:29:58;;;;;;;8.68;1.67;;;;;;;;;;7393382;19;19998;-79
2022/01/31 02:32:23;;;;;;;6.53;1.83;;;;;;;;;;7394076;19;20030;-79
2022/01/31 02:34:50;;;;;;;7.43;1.60;;;;;;;;;;7391855;19;20320;-79
2022/01/31 02:37:16;;;;;;;6.53;1.98;;;;;;;;;;7395738;19;20002;-79
2022/01/31 02:39:41;;;;;;;7.38;1.98;;;;;;;;;;7392803;19;20011;-79
2022/01/31 02:42:07;;;;;;;5.40;1.63;;;;;;;;;;7392048;19;20358;-79
2022/01/31 02:44:32;;;;;;;6.88;2.38;;;;;;;;;;7393440;19;20007;-79
2022/01/31 02:46:58;;;;;;;10.35;1.80;;;;;;;;;;7397101;19;20478;-79
2022/01/31 02:49:27;;;;;;;7.15;1.45;;;;;;;;;;7396271;19;20497;-79
2022/01/31 02:52:00;;;;;;;5.45;1.50;;;;;;;;;;7390551;19;20468;-79
2022/01/31 02:54:26;;;;;;;8.02;1.67;;;;;;;;;;7392911;19;20007;-79
2022/01/31 02:56:51;;;;;;;8.05;1.83;;;;;;;;;;7394672;19;20568;-79
2022/01/31 02:59:17;;;;;;;5.00;1.70;;;;;;;;;;7387538;19;20425;-80
2022/01/31 03:01:42;;;;;;;4.78;1.63;;;;;;;;;;7390517;19;20420;-79
2022/01/31 03:04:07;;;;;;;13.55;2.20;;;;;;;;;;7393296;19;20010;-79
2022/01/31 03:06:34;;;;;;;4.22;1.65;;;;;;;;;;7391157;19;20007;-79
2022/01/31 03:08:59;;;;;;;5.65;1.70;;;;;;;;;;7392767;19;20036;-79
2022/01/31 03:11:25;;;;;;;7.45;2.17;;;;;;;;;;7390446;19;20006;-78
2022/01/31 03:13:50;;;;;;;7.05;1.95;;;;;;;;;;7391596;19;20058;-78
2022/01/31 03:16:15;;;;;;;8.05;2.22;;;;;;;;;;7389832;19;20031;-78
2022/01/31 03:18:40;;;;;;;10.30;2.10;;;;;;;;;;7388754;19;20081;-78
2022/01/31 03:21:06;;;;;;;5.57;1.80;;;;;;;;;;7391315;19;20134;-79
2022/01/31 03:23:33;;;;;;;3.05;1.38;;;;;;;;;;7389576;19;20066;-79
2022/01/31 03:25:58;;;;;;;6.30;1.83;;;;;;;;;;7392265;19;20023;-78
2022/01/31 03:28:24;;;;;;;5.20;1.48;;;;;;;;;;7392803;19;20003;-79
2022/01/31 03:30:51;;;;;;;5.43;1.65;;;;;;;;;;7392174;19;20006;-78
2022/01/31 03:33:16;;;;;;;8.60;2.58;;;;;;;;;;7390157;19;20107;-78
2022/01/31 03:35:41;;;;;;;6.15;2.20;;;;;;;;;;7391256;19;20127;-80
2022/01/31 03:38:07;;;;;;;5.00;1.63;;;;;;;;;;7387479;19;20454;-78
2022/01/31 03:40:32;;;;;;;8.73;1.83;;;;;;;;;;7391357;19;20003;-78
2022/01/31 03:42:57;;;;;;;3.47;1.50;;;;;;;;;;7391225;19;20101;-78
2022/01/31 03:45:22;;;;;;;3.97;1.85;;;;;;;;;;7391461;19;20007;-78
2022/01/31 03:47:48;;;;;;;6.32;1.75;;;;;;;;;;7388743;19;20002;-79
2022/01/31 03:50:15;;;;;;;9.50;2.47;;;;;;;;;;7390484;19;20017;-79
2022/01/31 03:52:42;;;;;;;8.82;1.80;;;;;;;;;;7387843;19;20003;-78
2022/01/31 03:55:10;;;;;;;4.50;1.73;;;;;;;;;;7392035;19;20410;-78
2022/01/31 03:57:35;;;;;;;4.93;1.88;;;;;;;;;;7391411;19;20466;-78
2022/01/31 04:00:04;;;;;;;6.70;1.50;;;;;;;;;;7389605;19;20007;-79
2022/01/31 04:02:29;;;;;;;6.68;1.35;;;;;;;;;;7388245;19;20135;-78
2022/01/31 04:04:55;;;;;;;10.68;1.80;;;;;;;;;;7391958;19;20303;-78
2022/01/31 04:07:20;;;;;;;6.70;1.80;;;;;;;;;;7391316;19;20006;-78
2022/01/31 04:09:45;;;;;;;7.07;1.60;;;;;;;;;;7389615;19;20020;-79
2022/01/31 04:12:10;;;;;;;4.97;1.92;;;;;;;;;;7391095;19;20010;-78
2022/01/31 04:14:36;;;;;;;8.30;1.60;;;;;;;;;;7390616;19;19998;-78
2022/01/31 04:17:02;;;;;;;4.47;1.42;;;;;;;;;;7388836;19;19995;-79
2022/01/31 04:19:27;;;;;;;6.05;1.67;;;;;;;;;;7389630;19;20469;-79
2022/01/31 04:21:52;;;;;;;5.05;1.45;;;;;;;;;;7388454;19;20360;-79
2022/01/31 04:24:30;;;;;;;8.45;1.83;;;;;;;;;;7386795;19;20070;-78
2022/01/31 04:26:59;;;;;;;3.35;1.40;;;;;;;;;;7387411;19;20006;-79
2022/01/31 04:29:28;;;;;;;6.63;1.55;;;;;;;;;;7395951;19;20519;-79
2022/01/31 04:31:54;;;;;;;6.00;1.73;;;;;;;;;;7387658;19;20557;-78
2022/01/31 04:34:20;;;;;;;5.38;1.70;;;;;;;;;;7389972;19;20098;-78
2022/01/31 04:36:45;;;;;;;7.30;1.75;;;;;;;;;;7387698;19;20002;-77
2022/01/31 04:39:16;;;;;;;12.13;2.08;;;;;;;;;;7389457;19;20006;-77
2022/01/31 04:41:42;;;;;;;8.20;2.35;;;;;;;;;;7351857;19;20007;-77
2022/01/31 04:44:08;;;;;;;9.25;2.20;;;;;;;;;;7389824;19;20006;-78
2022/01/31 04:46:34;;;;;;;5.95;2.10;;;;;;;;;;7390829;19;20029;-77
2022/01/31 04:48:59;;;;;;;5.72;1.75;;;;;;;;;;7388378;19;20006;-76
2022/01/31 04:51:24;;;;;;;4.53;1.58;;;;;;;;;;7388509;19;20132;-78
2022/01/31 04:53:50;;;;;;;8.10;1.90;;;;;;;;;;7391732;19;20010;-76
2022/01/31 04:56:15;;;;;;;10.27;1.83;;;;;;;;;;7391839;19;20010;-77
2022/01/31 04:58:40;;;;;;;6.40;1.45;;;;;;;;;;7391464;19;20077;-79
2022/01/31 05:01:07;;;;;;;6.55;1.70;;;;;;;;;;7389542;19;20109;-78
2022/01/31 05:03:32;;;;;;;6.25;2.03;;;;;;;;;;7389943;19;20330;-77
2022/01/31 05:05:58;;;;;;;7.82;1.75;;;;;;;;;;7386331;19;20010;-77
2022/01/31 05:08:26;;;;;;;9.43;2.33;;;;;;;;;;7388598;19;20070;-78
2022/01/31 05:10:52;;;;;;;7.60;2.13;;;;;;;;;;7388026;19;20046;-78
2022/01/31 05:13:18;;;;;;;4.68;1.42;;;;;;;;;;7387517;19;20465;-77
2022/01/31 05:15:45;;;;;;;7.88;1.70;;;;;;;;;;7386255;19;20006;-78
2022/01/31 05:18:10;;;;;;;5.25;1.70;;;;;;;;;;7384316;19;20485;-78
2022/01/31 05:20:36;;;;;;;6.05;1.63;;;;;;;;;;7388448;19;20002;-78
2022/01/31 05:23:05;;;;;;;8.57;2.28;;;;;;;;;;7388362;19;20438;-77
2022/01/31 05:25:32;;;;;;;15.23;2.33;;;;;;;;;;7388935;19;20010;-77
2022/01/31 05:27:57;;;;;;;12.45;2.40;;;;;;;;;;7390447;19;20474;-77
2022/01/31 05:30:23;;;;;;;10.27;2.00;;;;;;;;;;7387932;19;19994;-78
2022/01/31 05:32:48;;;;;;;6.60;2.00;;;;;;;;;;7387717;19;20002;-77
2022/01/31 05:35:13;;;;;;;5.32;1.55;;;;;;;;;;7389627;19;20006;-77
2022/01/31 05:37:40;;;;;;;7.28;1.85;;;;;;;;;;7388591;19;20019;-77
2022/01/31 05:40:06;;;;;;;5.50;1.70;;;;;;;;;;7388706;19;20011;-77
2022/01/31 05:42:32;;;;;;;4.25;1.80;;;;;;;;;;7388657;19;20018;-76
2022/01/31 05:44:57;;;;;;;6.18;1.65;;;;;;;;;;7388399;19;20015;-77
2022/01/31 05:47:22;;;;;;;5.88;1.85;;;;;;;;;;7389760;19;20078;-78
2022/01/31 05:49:48;;;;;;;8.77;2.00;;;;;;;;;;7386952;19;20043;-79
2022/01/31 05:52:14;;;;;;;7.75;2.55;;;;;;;;;;7387397;19;20010;-79
2022/01/31 05:54:40;;;;;;;7.30;1.90;;;;;;;;;;7387362;19;20018;-78
2022/01/31 05:57:07;;;;;;;9.60;2.70;;;;;;;;;;7389127;19;19998;-78
2022/01/31 05:59:32;;;;;;;11.65;2.25;;;;;;;;;;7384766;19;20010;-75
2022/01/31 06:01:58;;;;;;;9.43;2.42;;;;;;;;;;7386005;19;20011;-77
2022/01/31 06:04:24;;;;;;;8.57;2.00;;;;;;;;;;7394005;19;20038;-76
2022/01/31 06:06:50;;;;;;;7.78;2.05;;;;;;;;;;7395532;19;20024;-78
2022/01/31 06:09:15;;;;;;;8.95;2.70;;;;;;;;;;7395106;19;20011;-79
2022/01/31 06:11:41;;;;;;;18.40;6.07;;;;;;;;;;7396014;19;20017;-77
2022/01/31 06:14:10;;;;;;;22.17;8.85;;;;;;;;;;7391764;19;20488;-77
2022/01/31 06:16:36;;;;;;;12.68;5.22;;;;;;;;;;7394098;19;20090;-75
2022/01/31 06:19:01;;;;;;;10.32;4.50;;;;;;;;;;7393662;19;20010;-77
2022/01/31 06:21:27;;;;;;;7.55;2.95;;;;;;;;;;7393640;19;20022;-76
2022/01/31 06:23:53;;;;;;;13.32;3.70;;;;;;;;;;7394592;19;20035;-77
2022/01/31 06:26:20;;;;;;;8.25;3.38;;;;;;;;;;7395704;19;20058;-78
2022/01/31 06:28:45;;;;;;;10.50;5.75;;;;;;;;;;7391806;19;20052;-78
2022/01/31 06:31:11;;;;;;;9.50;4.80;;;;;;;;;;7392762;19;20007;-78
2022/01/31 06:33:36;;;;;;;9.52;4.90;;;;;;;;;;7392958;19;20003;-78
2022/01/31 06:36:01;;;;;;;11.00;5.05;;;;;;;;;;7395031;19;20023;-77
2022/01/31 06:38:28;;;;;;;7.97;4.60;;;;;;;;;;7392661;19;19999;-77
2022/01/31 06:40:53;;;;;;;8.93;4.38;;;;;;;;;;7393468;19;20077;-78
2022/01/31 06:43:19;;;;;;;7.35;3.38;;;;;;;;;;7394623;19;20467;-79
2022/01/31 06:45:44;;;;;;;7.13;2.92;;;;;;;;;;7394740;19;20007;-79
2022/01/31 06:48:09;;;;;;;6.07;3.10;;;;;;;;;;7392595;19;20020;-78
2022/01/31 06:50:35;;;;;;;5.93;2.40;;;;;;;;;;7389202;19;20021;-77
2022/01/31 06:53:02;;;;;;;6.03;2.20;;;;;;;;;;7389948;19;20044;-78
2022/01/31 06:55:29;;;;;;;6.57;2.40;;;;;;;;;;7391415;19;20123;-78
2022/01/31 06:57:55;;;;;;;6.30;1.95;;;;;;;;;;7395105;19;20547;-78
2022/01/31 07:00:22;;;;;;;4.57;2.05;;;;;;;;;;7388284;19;20035;-79
2022/01/31 07:02:49;;;;;;;5.63;2.22;;;;;;;;;;7394239;19;20123;-79
2022/01/31 07:05:16;;;;;;;7.82;1.98;;;;;;;;;;7389510;19;20346;-79
2022/01/31 07:07:42;;;;;;;4.65;1.98;;;;;;;;;;7392074;19;20544;-78
2022/01/31 07:10:09;;;;;;;8.25;1.77;;;;;;;;;;7391288;19;20051;-78
2022/01/31 07:12:38;;;;;;;8.25;1.90;;;;;;;;;;7392416;19;20066;-79
2022/01/31 07:15:09;;;;;;;8.20;1.60;;;;;;;;;;7393291;19;20006;-79
2022/01/31 07:17:35;;;;;;;7.15;1.95;;;;;;;;;;7395411;19;20026;-79
2022/01/31 07:20:04;;;;;;;5.05;1.98;;;;;;;;;;7390702;19;20058;-79
2022/01/31 07:22:35;;;;;;;7.30;2.03;;;;;;;;;;7390805;19;20496;-79
2022/01/31 07:25:09;;;;;;;8.40;1.52;;;;;;;;;;7390147;19;20002;-79
2022/01/31 07:27:35;;;;;;;4.78;1.55;;;;;;;;;;7392983;19;20423;-79
2022/01/31 07:30:01;;;;;;;4.50;1.52;;;;;;;;;;7390291;19;20018;-79
2022/01/31 07:32:28;;;;;;;6.15;1.70;;;;;;;;;;7390455;19;20010;-80
2022/01/31 07:34:55;;;;;;;9.07;1.65;;;;;;;;;;7391776;19;20027;-80
2022/01/31 07:37:22;;;;;;;6.97;1.83;;;;;;;;;;7392039;19;20017;-78
2022/01/31 07:39:47;;;;;;;7.03;1.42;;;;;;;;;;7391671;19;20458;-78
2022/01/31 07:42:13;;;;;;;6.25;1.90;;;;;;;;;;7389202;19;20009;-78
2022/01/31 07:44:38;;;;;;;4.53;1.52;;;;;;;;;;7391942;19;19990;-78
2022/01/31 07:47:05;;;;;;;8.77;1.65;;;;;;;;;;7391780;19;20013;-78
2022/01/31 07:49:30;;;;;;;6.28;1.27;;;;;;;;;;7388369;19;20013;-77
2022/01/31 07:51:56;;;;;;;4.13;1.30;;;;;;;;;;7391946;19;20074;-77
2022/01/31 07:54:22;;;;;;;11.52;1.88;;;;;;;;;;7391241;19;20424;-79
2022/01/31 07:56:48;;;;;;;5.72;1.50;;;;;;;;;;7394108;19;20014;-78
2022/01/31 07:59:13;;;;;;;6.05;1.60;;;;;;;;;;7397167;19;20014;-78
2022/01/31 08:01:40;;;;;;;7.43;1.60;;;;;;;;;;7390750;19;20298;-78
2022/01/31 08:04:06;;;;;;;5.78;1.63;;;;;;;;;;7390204;19;20007;-78
2022/01/31 08:06:31;;;;;;;3.28;1.30;;;;;;;;;;7387780;19;20009;-80
2022/01/31 08:08:56;;;;;;;5.45;1.70;;;;;;;;;;7391037;19;20026;-78
2022/01/31 08:11:24;;;;;;;5.85;2.10;;;;;;;;;;7388305;19;20026;-80
2022/01/31 08:13:55;;;;;;;3.80;1.50;;;;;;;;;;7389993;19;20010;-78
2022/01/31 08:16:20;;;;;;;6.10;1.40;;;;;;;;;;7387658;19;20006;-80
2022/01/31 08:18:46;;;;;;;6.15;2.25;;;;;;;;;;7391714;19;20017;-81
2022/01/31 08:21:13;;;;;;;4.05;1.35;;;;;;;;;;7387382;19;20331;-78
2022/01/31 08:23:40;;;;;;;9.00;2.35;;;;;;;;;;7385109;19;20045;-79
2022/01/31 08:26:10;;;;;;;4.00;1.33;;;;;;;;;;7386810;19;20003;-78
2022/01/31 08:28:39;;;;;;;6.75;1.60;;;;;;;;;;7387489;19;20010;-78
2022/01/31 08:31:11;;;;;;;4.18;1.50;;;;;;;;;;7387401;19;20008;-78
2022/01/31 08:33:40;;;;;;;10.10;2.50;;;;;;;;;;7383543;19;20039;-77
2022/01/31 08:36:08;;;;;;;4.00;1.65;;;;;;;;;;7386680;19;20010;-78
2022/01/31 08:38:35;;;;;;;3.88;1.70;;;;;;;;;;7388590;19;20417;-78
2022/01/31 08:41:01;;;;;;;4.50;1.40;;;;;;;;;;7385858;19;20002;-79
2022/01/31 08:43:26;;;;;;;4.80;1.70;;;;;;;;;;7386275;19;20013;-78
2022/01/31 08:45:55;;;;;;;6.72;1.50;;;;;;;;;;7391319;19;20009;-78
2022/01/31 08:48:20;;;;;;;4.03;1.73;;;;;;;;;;7388605;19;20010;-79
2022/01/31 08:50:46;;;;;;;4.70;1.60;;;;;;;;;;7384500;19;20009;-79
2022/01/31 08:53:11;;;;;;;5.65;1.58;;;;;;;;;;7388953;19;20371;-78
2022/01/31 08:55:36;;;;;;;8.30;2.13;;;;;;;;;;7387778;19;20473;-79
2022/01/31 08:58:05;;;;;;;3.78;1.38;;;;;;;;;;7387102;19;20006;-79
2022/01/31 09:00:34;;;;;;;4.53;1.67;;;;;;;;;;7384640;19;20014;-79
2022/01/31 09:05:36;;;;;;;3.05;1.40;;;;;;;;;;7384988;19;20561;-78
2022/01/31 09:08:01;;;;;;;6.60;1.77;;;;;;;;;;7387910;19;20010;-78
2022/01/31 09:10:26;;;;;;;4.38;2.05;;;;;;;;;;7385364;19;20028;-79
2022/01/31 09:12:51;;;;;;;4.22;1.85;;;;;;;;;;7388120;19;20319;-78
2022/01/31 09:15:17;;;;;;;6.10;1.40;;;;;;;;;;7386956;19;20628;-79
2022/01/31 09:17:42;;;;;;;4.03;1.90;;;;;;;;;;7388599;19;20011;-78
2022/01/31 09:20:08;;;;;;;6.03;1.73;;;;;;;;;;7384839;19;20079;-78
2022/01/31 09:22:34;;;;;;;3.78;1.63;;;;;;;;;;7387982;19;20013;-80
2022/01/31 09:24:59;;;;;;;5.28;1.73;;;;;;;;;;7390639;19;20010;-79
2022/01/31 09:27:25;;;;;;;2.03;1.40;;;;;;;;;;7389291;19;20002;-77
2022/01/31 09:29:50;;;;;;;4.72;1.50;;;;;;;;;;7385714;19;20013;-78
2022/01/31 09:32:20;;;;;;;4.68;1.80;;;;;;;;;;7383473;19;20011;-79
2022/01/31 09:34:46;;;;;;;2.17;1.23;;;;;;;;;;7385188;19;20003;-78
2022/01/31 09:37:12;;;;;;;2.08;1.40;;;;;;;;;;7391815;19;20355;-78
2022/01/31 09:39:37;;;;;;;4.25;1.50;;;;;;;;;;7391411;19;20173;-78
2022/01/31 09:42:12;;;;;;;5.18;1.80;;;;;;;;;;7391273;19;20038;-79
2022/01/31 09:45:53;;;;;;;5.85;1.42;;;;;;;;;;7394975;19;19995;-78
2022/01/31 09:50:21;;;;;;;3.58;1.30;;;;;;;;;;7398569;19;20034;-79
2022/01/31 09:52:46;;;;;;;3.97;1.20;;;;;;;;;;7397109;19;19999;-80
2022/01/31 09:55:12;;;;;;;1.83;1.10;;;;;;;;;;7398016;19;20643;-78
2022/01/31 09:57:37;;;;;;;2.42;1.10;;;;;;;;;;7395864;19;20003;-79
2022/01/31 10:00:05;;;;;;;1.90;1.25;;;;;;;;;;7396346;19;20019;-79
2022/01/31 10:02:30;;;;;;;1.10;1.00;;;;;;;;;;7392932;19;20070;-79
2022/01/31 10:04:56;;;;;;;1.88;1.10;;;;;;;;;;7393397;19;20474;-78
2022/01/31 10:07:21;;;;;;;2.83;1.48;;;;;;;;;;7394392;19;20009;-79
2022/01/31 10:09:48;;;;;;;1.98;1.20;;;;;;;;;;7390155;19;20002;-78
2022/01/31 10:17:39;;;;;;;0.80;0.70;;;;;;;;;;7393899;19;20018;-78
2022/01/31 10:20:21;;;;;;;1.48;1.10;;;;;;;;;;7389520;19;20017;-78
2022/01/31 10:22:47;;;;;;;1.63;0.68;;;;;;;;;;7391754;19;20018;-79
2022/01/31 10:25:16;;;;;;;1.40;0.90;;;;;;;;;;7392564;19;20030;-78
2022/01/31 10:27:52;;;;;;;1.70;0.80;;;;;;;;;;7392048;19;20107;-79
2022/01/31 10:30:20;;;;;;;0.70;0.65;;;;;;;;;;7391558;19;20070;-78
2022/01/31 10:32:48;;;;;;;1.02;0.80;;;;;;;;;;7391072;19;20006;-77
2022/01/31 10:35:25;;;;;;;0.75;0.65;;;;;;;;;;7391908;19;20450;-78
2022/01/31 10:37:57;;;;;;;1.38;0.70;;;;;;;;;;7392739;19;20286;-78
2022/01/31 10:53:50;;;;;;;3.22;1.10;;;;;;;;;;7392877;19;20019;-79
2022/01/31 10:56:17;;;;;;;1.92;1.00;;;;;;;;;;7396884;19;20034;-79
2022/01/31 10:59:00;;;;;;;1.30;1.00;;;;;;;;;;7395079;19;20003;-79
2022/01/31 11:01:27;;;;;;;2.85;1.05;;;;;;;;;;7391961;19;20146;-79
2022/01/31 11:03:53;;;;;;;1.20;0.82;;;;;;;;;;7394595;19;20014;-78
2022/01/31 11:06:20;;;;;;;2.33;0.85;;;;;;;;;;7392642;19;20070;-79
2022/01/31 11:08:47;;;;;;;1.67;0.85;;;;;;;;;;7392046;19;20014;-77
2022/01/31 11:11:12;;;;;;;1.63;0.90;;;;;;;;;;7393105;19;20015;-78
2022/01/31 11:13:38;;;;;;;0.82;0.75;;;;;;;;;;7389863;19;20037;-78
2022/01/31 11:16:06;;;;;;;2.25;0.80;;;;;;;;;;7390827;19;20002;-77
2022/01/31 11:18:33;;;;;;;1.27;0.70;;;;;;;;;;7393648;19;20010;-78
2022/01/31 11:21:07;;;;;;;2.47;0.85;;;;;;;;;;7390518;19;20385;-77
2022/01/31 11:23:40;;;;;;;3.03;0.80;;;;;;;;;;7389691;19;20018;-77
2022/01/31 11:26:07;;;;;;;1.38;0.50;;;;;;;;;;7390846;19;20122;-77
2022/01/31 11:28:34;;;;;;;0.70;0.50;;;;;;;;;;7388252;19;20511;-76
2022/01/31 11:31:01;;;;;;;0.70;0.55;;;;;;;;;;7390355;19;20098;-77
2022/01/31 11:33:28;;;;;;;0.55;0.50;;;;;;;;;;7385916;19;20086;-76
2022/01/31 11:35:54;;;;;;;2.40;0.75;;;;;;;;;;7388498;19;20013;-76
2022/01/31 11:38:20;;;;;;;1.33;0.80;;;;;;;;;;7388263;19;20011;-76
2022/01/31 11:40:46;;;;;;;2.15;0.55;;;;;;;;;;7388363;19;20567;-76
2022/01/31 11:43:12;;;;;;;2.10;0.55;;;;;;;;;;7387389;19;20014;-76
2022/01/31 11:45:41;;;;;;;1.60;0.60;;;;;;;;;;7388227;19;20013;-77
2022/01/31 11:48:11;;;;;;;1.48;0.70;;;;;;;;;;7390495;19;20470;-76
2022/01/31 11:50:45;;;;;;;1.05;0.82;;;;;;;;;;7388830;19;20014;-77
2022/01/31 11:53:11;;;;;;;1.02;0.50;;;;;;;;;;7386316;19;20430;-76
2022/01/31 11:55:40;;;;;;;0.70;0.60;;;;;;;;;;7377468;19;20015;-76
2022/01/31 11:58:07;;;;;;;1.52;0.60;;;;;;;;;;7386305;19;20002;-77
2022/01/31 12:00:37;;;;;;;1.95;0.60;;;;;;;;;;7383355;19;20042;-76
2022/01/31 12:03:05;;;;;;;1.58;0.77;;;;;;;;;;7387422;19;20011;-76
2022/01/31 12:05:33;;;;;;;0.82;0.70;;;;;;;;;;7388011;19;20350;-76
2022/01/31 12:08:19;;;;;;;1.42;0.90;;;;;;;;;;7387434;19;20061;-76
2022/01/31 12:11:18;;;;;;;2.40;1.10;;;;;;;;;;7387513;19;20430;-77
2022/01/31 12:13:46;;;;;;;3.13;0.90;;;;;;;;;;7387321;19;20006;-78
2022/01/31 12:16:36;;;;;;;1.30;0.55;;;;;;;;;;7388617;19;20010;-77
2022/01/31 12:22:04;;;;;;;1.88;0.50;;;;;;;;;;7387305;19;19999;-77
2022/01/31 12:24:31;;;;;;;0.98;0.63;;;;;;;;;;7387814;19;20011;-77
2022/01/31 12:27:16;;;;;;;0.60;0.55;;;;;;;;;;7390083;19;20006;-77
2022/01/31 12:29:44;;;;;;;3.20;1.13;;;;;;;;;;7385915;19;19999;-77
2022/01/31 12:32:17;;;;;;;3.42;0.70;;;;;;;;;;7387993;19;20476;-77
2022/01/31 12:35:07;;;;;;;1.58;0.70;;;;;;;;;;7389733;19;20169;-77
2022/01/31 12:37:40;;;;;;;1.83;0.90;;;;;;;;;;7388451;19;20029;-76
2022/01/31 12:40:19;;;;;;;1.35;0.80;;;;;;;;;;7387983;19;20011;-78
2022/01/31 12:45:31;;;;;;;1.33;0.60;;;;;;;;;;7386065;19;19983;-78
2022/01/31 12:48:05;;;;;;;1.25;0.75;;;;;;;;;;7386512;19;20101;-78
2022/01/31 12:50:32;;;;;;;3.35;0.60;;;;;;;;;;7388773;19;20018;-78
2022/01/31 12:53:03;;;;;;;1.27;0.57;;;;;;;;;;7387359;19;20081;-78
2022/01/31 12:55:30;;;;;;;2.13;0.50;;;;;;;;;;7388346;19;20039;-78
2022/01/31 12:57:55;;;;;;;2.70;0.55;;;;;;;;;;7387154;19;20023;-79
2022/01/31 13:00:40;;;;;;;0.70;0.28;;;;;;;;;;7384317;19;20010;-78
2022/01/31 13:03:09;;;;;;;1.35;0.60;;;;;;;;;;7386354;19;20012;-78
2022/01/31 13:05:36;;;;;;;2.28;0.50;;;;;;;;;;7387327;19;20010;-78
2022/01/31 13:08:26;;;;;;;1.35;0.80;;;;;;;;;;7386185;19;20078;-78
2022/01/31 13:10:53;;;;;;;1.83;0.85;;;;;;;;;;7385486;19;20078;-78
2022/01/31 13:13:38;;;;;;;2.28;0.70;;;;;;;;;;7386126;19;20378;-78
2022/01/31 13:16:05;;;;;;;0.63;0.50;;;;;;;;;;7387726;19;20066;-78
2022/01/31 13:18:32;;;;;;;3.13;1.73;;;;;;;;;;7383781;19;20017;-78
2022/01/31 13:20:58;;;;;;;2.20;0.95;;;;;;;;;;7386240;19;20493;-78
2022/01/31 13:23:26;;;;;;;1.83;0.75;;;;;;;;;;7384863;19;20032;-78
2022/01/31 13:26:06;;;;;;;4.25;0.90;;;;;;;;;;7386390;19;20420;-79
2022/01/31 13:28:32;;;;;;;1.67;0.80;;;;;;;;;;7386106;19;20734;-79
2022/01/31 13:31:08;;;;;;;2.15;0.98;;;;;;;;;;7386121;19;20339;-78
2022/01/31 13:33:46;;;;;;;;;;;;;;;;;;7383341;19;20010;-76
2022/01/31 13:36:12;;;;;;;0.55;0.50;;;;;;;;;;7384343;19;19920;-78
2022/01/31 13:38:37;;;;;;;2.13;0.60;;;;;;;;;;7385527;19;20023;-78
2022/01/31 13:41:03;;;;;;;3.70;0.85;;;;;;;;;;7385441;19;20035;-79
2022/01/31 13:43:36;;;;;;;0.47;0.45;;;;;;;;;;7382936;19;20011;-79
2022/01/31 13:51:35;;;;;;;2.45;0.52;;;;;;;;;;7386756;19;20034;-79
2022/01/31 13:54:27;;;;;;;3.33;0.77;;;;;;;;;;7388938;19;20013;-78
2022/01/31 13:56:58;;;;;;;0.60;0.40;;;;;;;;;;7386698;19;20379;-78
2022/01/31 13:59:26;;;;;;;1.65;0.57;;;;;;;;;;7385120;19;20018;-79
2022/01/31 14:02:09;;;;;;;2.22;1.10;;;;;;;;;;7385482;19;20003;-79
2022/01/31 14:04:40;;;;;;;0.63;0.50;;;;;;;;;;7387494;19;20006;-79
2022/01/31 14:07:23;;;;;;;1.27;0.60;;;;;;;;;;7384589;19;20035;-79
2022/01/31 14:09:48;;;;;;;1.58;0.82;;;;;;;;;;7385591;19;20091;-79
2022/01/31 14:12:15;;;;;;;0.55;0.40;;;;;;;;;;7386468;19;20014;-79
2022/01/31 14:14:44;;;;;;;2.03;0.70;;;;;;;;;;7386356;19;20010;-77
2022/01/31 14:17:09;;;;;;;2.33;0.60;;;;;;;;;;7389312;19;20411;-78
2022/01/31 14:19:38;;;;;;;4.18;0.52;;;;;;;;;;7385522;19;20072;-78
2022/01/31 14:22:07;;;;;;;2.22;0.40;;;;;;;;;;7382222;19;20006;-78
2022/01/31 14:24:33;;;;;;;3.03;0.55;;;;;;;;;;7386451;19;20018;-79
2022/01/31 14:27:04;;;;;;;2.50;0.70;;;;;;;;;;7393181;19;20482;-79
2022/01/31 14:29:34;;;;;;;3.47;0.88;;;;;;;;;;7390446;19;20039;-78
2022/01/31 14:32:00;;;;;;;0.70;0.40;;;;;;;;;;7392018;19;20010;-77
2022/01/31 14:34:26;;;;;;;1.02;0.50;;;;;;;;;;7392147;19;20006;-78
2022/01/31 14:36:57;;;;;;;1.92;0.43;;;;;;;;;;7393416;19;20090;-77
2022/01/31 14:39:37;;;;;;;2.25;0.60;;;;;;;;;;7392290;19;20489;-77
2022/01/31 14:42:27;;;;;;;1.50;0.52;;;;;;;;;;7391515;19;20010;-77
2022/01/31 14:47:51;;;;;;;;;;;;;;;;;;7396881;19;20135;-78
2022/01/31 14:50:24;;;;;;;3.90;0.90;;;;;;;;;;7392821;19;19922;-78
2022/01/31 14:52:50;;;;;;;0.93;0.40;;;;;;;;;;7392879;19;19998;-78
2022/01/31 14:55:18;;;;;;;1.65;0.57;;;;;;;;;;7395653;19;20025;-77
2022/01/31 14:57:45;;;;;;;2.10;0.50;;;;;;;;;;7394257;19;20002;-77
2022/01/31 15:00:13;;;;;;;2.78;0.70;;;;;;;;;;7391058;19;20434;-77
2022/01/31 15:02:39;;;;;;;1.50;0.52;;;;;;;;;;7392017;19;20014;-78
2022/01/31 15:05:06;;;;;;;2.25;0.68;;;;;;;;;;7390928;19;20337;-79
2022/01/31 15:07:31;;;;;;;1.55;0.50;;;;;;;;;;7392809;19;20474;-79
2022/01/31 15:09:57;;;;;;;0.52;0.52;;;;;;;;;;7393781;19;20002;-78
2022/01/31 15:12:22;;;;;;;1.42;0.70;;;;;;;;;;7391992;19;19998;-78
2022/01/31 15:14:48;;;;;;;0.90;0.45;;;;;;;;;;7393384;19;19999;-78
2022/01/31 15:17:13;;;;;;;1.98;0.50;;;;;;;;;;7393574;19;20027;-78
2022/01/31 15:19:39;;;;;;;2.47;0.73;;;;;;;;;;7387745;19;20040;-80
2022/01/31 15:22:04;;;;;;;1.38;0.50;;;;;;;;;;7388211;19;20014;-80
2022/01/31 15:24:30;;;;;;;2.03;0.40;;;;;;;;;;7394609;19;20447;-79